Terminal Aerodrome Forecast
Issued by NWS Paducah, KY

Home | Current Version | Previous Version | Text Only | Print | Product List | Glossary On
Versions: 1 2 3 4 5 6 7 8 9 10 11 12 13 14 15 16 17 18 19 20 21 22 23
000
FTUS43 KPAH 011700
TAFEVV
TAF
KEVV 011720Z 0118/0218 22013G23KT P6SM SCT035 BKN150
     FM020000 19006KT P6SM SCT050 BKN150 PROB30 0207/0213 2SM +TSRA
      BR BKN015CB
     FM021300 23007KT P6SM BKN025=

USA.gov is the U.S. government's official web portal to all federal, state and local government web resources and services.